Suzuka, Japan
Current Conditions -  °F | °C
As of 12:00 PM on Saturday 22 Nov 2014 (Local Time) from RJGG Reporting Station
Few Clouds Few Clouds  
Wind Chill: 61°   Ceiling: Unl
Heat Index: 61°   Visibility: 6mi
Dew Point: 46°   Wind: 8mph
Humidity: 59%   Direction: 320°NW
Pressure: 30.15"   Gusts: NA
Location:  34.88°N, 136.58°E
Report Text: RJGG 220300Z 32007KT 9999 FEW030 16/08 Q1021 NOSIG
Loading
Personal Weather Stations






























Interactive Weather Map New forecast layout! Learn more

10-Day Weather Forecast

Advertisements
Track Severe Weather on mobile